Strona główna
METAR-TAF:

METAR-TAF

Lotnisko :

Port lotniczy Kaduna

Kaduna, Nigeria

Szerokość geograficzna: 10-36N, Długość geograficzna: 007-27E, wysokość: 645 m

Aktualna obserwacja pogody

Raport powstał 6 godziny i 7 minut temu, godzina 16:00 UTC
Wiatr 10 kt od północny wschód
Temperatura 31°C
Wilgotność 16%
Ciśnienie 1015 hPa
Widzialność: 8000 m

METAR: DNKA 291600Z 05010KT 8000 NSC 31/02 Q1015

czas: 23:07 (22:07 UTC)

Prognoza

Raport powstał 17 godziny i 7 minut temu, godzina 05:00 UTC
Prognoza ważna od 29 godzina 06 UTC do 30 godzina 12 UTC
Wiatr 9 kt od wschodnio-północny wschód
Widzialność: 8000 m
Prawdopodobieństwo 30% :
Przejściowo
od 29 godzina 06 UTC do 29 godzina 11 UTC
Widzialność: 5000 m
zmętnienie

TAF: DNKA 290500Z 2906/3012 06009KT 8000 NSC PROB30 TEMPO 2906/2911 5000 HZ

Obserwacja i prognoza pogody dla ponad 4000 lotnisk (raport METAR i TAF).

Dostępne stacje oznaczono żółtymi i czerwonymi punktami na mapie.

Najedź kursorem aby zobaczyć nazwę stacji.

Kliknij aby zobaczyć obserwacje i prognozy pogody.

Aby zmienić mapę: kliknij na zielony przycisk z czarnym krzyżykiem, aby powiększyć; na zielony przycisk z myślnikiem, aby pomniejszyć; na zielone strzałki, aby przejść do map sąsiednich.


METAR-TAF: